createdAt,value
2023-04-16T00:02:26.086Z,9.73
2023-04-16T00:04:53.222Z,6.32
2023-04-16T00:07:20.080Z,8.90
2023-04-16T00:09:46.939Z,5.57
2023-04-16T00:12:15.785Z,10.18
2023-04-16T00:14:43.935Z,6.88
2023-04-16T00:17:17.126Z,11.55
2023-04-16T00:19:43.834Z,9.38
2023-04-16T00:22:11.024Z,9.40
2023-04-16T00:24:38.039Z,7.47
2023-04-16T00:27:05.053Z,7.65
2023-04-16T00:29:33.759Z,8.15
2023-04-16T00:32:00.645Z,8.45
2023-04-16T00:34:27.437Z,10.05
2023-04-16T00:36:54.210Z,7.53
2023-04-16T00:39:21.195Z,11.85
2023-04-16T00:41:48.150Z,7.10
2023-04-16T00:44:15.002Z,8.10
2023-04-16T00:46:43.545Z,6.07
2023-04-16T00:49:12.056Z,11.00
2023-04-16T00:51:38.834Z,4.53
2023-04-16T00:54:06.720Z,9.35
2023-04-16T00:56:34.746Z,7.90
2023-04-16T00:59:01.711Z,12.82
2023-04-16T01:01:28.597Z,10.63
2023-04-16T01:03:58.056Z,9.75
2023-04-16T01:06:24.936Z,11.60
2023-04-16T01:08:51.719Z,9.68
2023-04-16T01:11:18.481Z,13.95
2023-04-16T01:13:45.250Z,12.25
2023-04-16T01:16:12.470Z,13.80
2023-04-16T01:18:41.366Z,12.70
2023-04-16T01:21:10.487Z,13.15
2023-04-16T01:23:37.203Z,11.97
2023-04-16T01:26:04.013Z,16.33
2023-04-16T01:28:30.781Z,13.05
2023-04-16T01:30:57.558Z,15.98
2023-04-16T01:33:24.370Z,9.43
2023-04-16T01:35:51.130Z,12.52
2023-04-16T01:38:21.097Z,10.32
2023-04-16T01:40:48.076Z,15.60
2023-04-16T01:43:16.360Z,14.45
2023-04-16T01:45:45.632Z,18.38
2023-04-16T01:48:12.606Z,14.75
2023-04-16T01:50:39.457Z,18.58
2023-04-16T01:53:06.224Z,17.35
2023-04-16T01:55:34.747Z,16.60
2023-04-16T01:58:01.512Z,12.68
2023-04-16T02:00:28.246Z,15.85
2023-04-16T02:02:55.172Z,19.88
2023-04-16T02:05:22.013Z,21.33
2023-04-16T02:07:48.800Z,17.73
2023-04-16T02:10:15.664Z,28.27
2023-04-16T02:12:43.751Z,24.58
2023-04-16T02:15:11.342Z,22.57
2023-04-16T02:17:38.156Z,18.67
2023-04-16T02:20:05.822Z,21.95
2023-04-16T02:22:35.492Z,26.38
2023-04-16T02:25:02.343Z,19.90
2023-04-16T02:27:29.501Z,26.77
2023-04-16T02:30:00.161Z,19.02
2023-04-16T02:32:27.035Z,27.58
2023-04-16T02:34:53.790Z,19.15
2023-04-16T02:37:20.541Z,21.42
2023-04-16T02:39:47.288Z,18.90
2023-04-16T02:42:14.561Z,22.55
2023-04-16T02:44:41.501Z,19.98
2023-04-16T02:47:09.603Z,26.73
2023-04-16T02:49:36.360Z,27.33
2023-04-16T02:52:03.091Z,25.65
2023-04-16T02:54:29.822Z,25.58
2023-04-16T02:56:56.656Z,23.80
2023-04-16T02:59:23.538Z,20.85
2023-04-16T03:01:50.334Z,21.33
2023-04-16T03:04:18.505Z,23.05
2023-04-16T03:06:45.341Z,22.43
2023-04-16T03:09:12.328Z,24.15
2023-04-16T03:11:39.168Z,19.10
2023-04-16T03:14:05.890Z,22.02
2023-04-16T03:16:32.620Z,23.38
2023-04-16T03:18:59.387Z,23.33
2023-04-16T03:21:27.468Z,27.27
2023-04-16T03:23:54.261Z,24.60
2023-04-16T03:26:21.009Z,19.90
2023-04-16T03:28:47.777Z,25.90
2023-04-16T03:31:14.571Z,26.17
2023-04-16T03:33:41.370Z,24.75
2023-04-16T03:36:08.891Z,25.17
2023-04-16T03:38:36.979Z,27.88
2023-04-16T03:41:03.840Z,19.20
2023-04-16T03:43:30.604Z,31.67
2023-04-16T03:45:57.317Z,21.90
2023-04-16T03:48:24.130Z,21.75
2023-04-16T03:50:50.873Z,24.88
2023-04-16T03:53:17.786Z,24.83
2023-04-16T03:55:50.198Z,29.92
2023-04-16T03:58:17.057Z,29.60
2023-04-16T04:00:44.164Z,28.40
2023-04-16T04:03:14.928Z,29.63
2023-04-16T04:05:42.724Z,25.55
2023-04-16T04:08:12.668Z,26.67
2023-04-16T04:10:39.440Z,26.63
2023-04-16T04:13:07.795Z,22.90
2023-04-16T04:15:34.638Z,24.88
2023-04-16T04:18:01.706Z,20.23
2023-04-16T04:20:28.480Z,29.95
2023-04-16T04:22:55.189Z,31.58
2023-04-16T04:25:22.221Z,29.52
2023-04-16T04:27:48.972Z,28.13
2023-04-16T04:30:17.121Z,35.33
2023-04-16T04:32:43.975Z,32.80
2023-04-16T04:35:10.932Z,27.20
2023-04-16T04:37:37.724Z,27.73
2023-04-16T04:40:05.196Z,28.20
2023-04-16T04:42:31.964Z,30.27
2023-04-16T04:44:58.775Z,31.67
2023-04-16T04:47:26.918Z,28.60
2023-04-16T04:49:53.715Z,22.08
2023-04-16T04:52:20.495Z,24.25
2023-04-16T04:54:47.306Z,30.77
2023-04-16T04:57:14.015Z,30.77
2023-04-16T04:59:40.700Z,20.85
2023-04-16T05:02:07.677Z,26.65
2023-04-16T05:04:35.892Z,24.17
2023-04-16T05:07:02.734Z,30.60
2023-04-16T05:09:29.515Z,23.48
2023-04-16T05:11:56.265Z,24.27
2023-04-16T05:14:23.095Z,22.35
2023-04-16T05:16:49.927Z,17.00
2023-04-16T05:19:16.985Z,24.23
2023-04-16T05:21:45.154Z,27.85
2023-04-16T05:24:14.747Z,22.40
2023-04-16T05:26:41.788Z,25.45
2023-04-16T05:29:08.762Z,32.35
2023-04-16T05:31:35.754Z,25.45
2023-04-16T05:34:05.223Z,25.08
2023-04-16T05:36:33.720Z,28.00
2023-04-16T05:39:01.922Z,25.30
2023-04-16T05:41:28.779Z,22.73
2023-04-16T05:43:56.175Z,32.38
2023-04-16T05:46:25.466Z,29.85
2023-04-16T05:48:52.198Z,25.60
2023-04-16T05:51:19.006Z,27.75
2023-04-16T05:53:48.521Z,25.40
2023-04-16T05:56:16.960Z,27.50
2023-04-16T05:58:43.655Z,21.17
2023-04-16T06:01:11.059Z,25.08
2023-04-16T06:03:37.965Z,31.95
2023-04-16T06:06:04.999Z,27.80
2023-04-16T06:08:31.855Z,29.83
2023-04-16T06:10:58.618Z,32.72
2023-04-16T06:13:26.724Z,23.55
2023-04-16T06:15:55.901Z,29.40
2023-04-16T06:18:25.489Z,24.17
2023-04-16T06:20:55.077Z,31.88
2023-04-16T06:23:22.024Z,29.58
2023-04-16T06:25:48.758Z,27.02
2023-04-16T06:28:18.607Z,25.52
2023-04-16T06:30:46.932Z,24.20
2023-04-16T06:33:13.807Z,28.75
2023-04-16T06:35:40.636Z,27.08
2023-04-16T06:38:10.229Z,26.25
2023-04-16T06:40:39.386Z,24.75
2023-04-16T06:43:06.233Z,28.42
2023-04-16T06:45:33.032Z,24.35
2023-04-16T06:48:01.196Z,36.42
2023-04-16T06:50:28.060Z,28.45
2023-04-16T06:52:55.034Z,27.25
2023-04-16T06:55:21.821Z,24.25
2023-04-16T06:57:48.584Z,19.85
2023-04-16T07:00:15.538Z,23.38
2023-04-16T07:02:43.982Z,25.35
2023-04-16T07:05:12.377Z,22.85
2023-04-16T07:07:42.180Z,25.92
2023-04-16T07:10:10.602Z,26.00
2023-04-16T07:12:37.406Z,26.40
2023-04-16T07:15:05.363Z,28.92
2023-04-16T07:17:32.187Z,26.33
2023-04-16T07:19:59.040Z,24.42
2023-04-16T07:22:27.096Z,24.45
2023-04-16T07:24:53.786Z,24.73
2023-04-16T07:27:20.534Z,26.05
2023-04-16T07:29:47.269Z,25.75
2023-04-16T07:32:15.496Z,21.88
2023-04-16T07:34:42.501Z,26.38
2023-04-16T07:37:09.389Z,29.48
2023-04-16T07:39:39.640Z,22.77
2023-04-16T07:42:06.413Z,33.75
2023-04-16T07:44:33.391Z,24.10
2023-04-16T07:47:00.168Z,30.63
2023-04-16T07:49:26.949Z,32.83
2023-04-16T07:51:53.700Z,24.90
2023-04-16T07:54:20.470Z,34.28
2023-04-16T07:56:48.549Z,29.75
2023-04-16T07:59:22.573Z,25.97
2023-04-16T08:01:52.672Z,29.02
2023-04-16T08:04:19.967Z,30.48
2023-04-16T08:06:46.844Z,29.58
2023-04-16T08:09:13.581Z,35.28
2023-04-16T08:11:40.291Z,35.10
2023-04-16T08:14:08.614Z,31.52
2023-04-16T08:16:35.375Z,34.78
2023-04-16T08:19:02.150Z,30.45
2023-04-16T08:21:28.993Z,34.88
2023-04-16T08:23:58.131Z,39.42
2023-04-16T08:26:24.903Z,30.98
2023-04-16T08:28:51.611Z,28.77
2023-04-16T08:31:19.734Z,29.83
2023-04-16T08:33:48.194Z,29.45
2023-04-16T08:36:14.915Z,30.52
2023-04-16T08:38:41.657Z,26.40
2023-04-16T08:41:12.633Z,33.65
2023-04-16T08:43:47.023Z,35.15
2023-04-16T08:46:15.471Z,31.92
2023-04-16T08:48:51.050Z,26.98
2023-04-16T08:51:21.010Z,30.35
2023-04-16T08:53:52.254Z,30.95
2023-04-16T08:56:21.275Z,29.90
2023-04-16T09:01:16.172Z,35.97
2023-04-16T09:03:46.634Z,32.85
2023-04-16T09:06:16.410Z,28.98
2023-04-16T09:08:44.386Z,26.00
2023-04-16T09:11:12.136Z,27.97
2023-04-16T09:13:38.964Z,35.78
2023-04-16T09:16:07.856Z,28.40
2023-04-16T09:18:34.619Z,29.60
2023-04-16T09:21:02.866Z,25.20
2023-04-16T09:23:29.768Z,39.35
2023-04-16T09:25:56.926Z,32.60
2023-04-16T09:28:42.519Z,31.05
2023-04-16T09:31:10.918Z,30.55
2023-04-16T09:33:37.657Z,24.85
2023-04-16T09:36:06.761Z,28.52
2023-04-16T09:38:46.665Z,27.83
2023-04-16T09:41:14.128Z,34.80
2023-04-16T09:43:53.849Z,27.50
2023-04-16T09:46:23.202Z,27.35
2023-04-16T09:48:50.290Z,30.35
2023-04-16T09:51:18.520Z,32.28
2023-04-16T09:53:45.259Z,29.33
2023-04-16T09:56:12.766Z,26.60
2023-04-16T09:58:39.603Z,24.15
2023-04-16T10:01:08.713Z,27.88
2023-04-16T10:03:37.232Z,27.90
2023-04-16T10:06:16.997Z,24.88
2023-04-16T10:08:48.525Z,38.05
2023-04-16T10:11:17.590Z,30.23
2023-04-16T10:13:44.413Z,32.83
2023-04-16T10:16:11.894Z,27.75
2023-04-16T10:18:40.576Z,32.25
2023-04-16T10:21:07.848Z,27.08
2023-04-16T10:23:35.107Z,29.02
2023-04-16T10:26:06.252Z,29.80
2023-04-16T10:28:34.197Z,33.17
2023-04-16T10:31:02.353Z,39.45
2023-04-16T10:33:33.233Z,30.40
2023-04-16T10:36:09.042Z,30.23
2023-04-16T10:38:45.553Z,25.15
2023-04-16T10:41:13.870Z,28.70
2023-04-16T10:43:42.655Z,28.55
2023-04-16T10:46:22.857Z,27.40
2023-04-16T10:48:51.005Z,22.92
2023-04-16T10:51:38.997Z,23.52
2023-04-16T10:54:20.683Z,31.63
2023-04-16T10:56:50.667Z,22.73
2023-04-16T10:59:19.501Z,28.50
2023-04-16T11:01:47.756Z,23.08
2023-04-16T11:04:33.771Z,23.80
2023-04-16T11:07:02.375Z,25.13
2023-04-16T11:09:59.834Z,26.75
2023-04-16T11:12:35.723Z,23.60
2023-04-16T11:15:04.316Z,31.50
2023-04-16T11:17:37.552Z,25.42
2023-04-16T11:20:19.339Z,23.08
2023-04-16T11:22:47.740Z,26.40
2023-04-16T11:25:19.845Z,20.85
2023-04-16T11:27:47.999Z,20.58
2023-04-16T11:30:15.052Z,24.75
2023-04-16T11:32:43.664Z,21.27
2023-04-16T11:35:14.615Z,20.98
2023-04-16T11:37:42.376Z,17.30
2023-04-16T11:40:09.901Z,15.32
2023-04-16T11:42:37.947Z,16.70
2023-04-16T11:45:07.790Z,13.53
2023-04-16T11:47:43.744Z,12.82
2023-04-16T11:50:21.714Z,16.00
2023-04-16T11:52:49.613Z,14.97
2023-04-16T11:55:16.770Z,14.93
2023-04-16T11:57:43.558Z,17.35
2023-04-16T12:00:13.144Z,14.75
2023-04-16T12:02:45.350Z,13.02
2023-04-16T12:05:30.506Z,14.77
2023-04-16T12:07:58.094Z,12.10
2023-04-16T12:10:25.393Z,17.13
2023-04-16T12:12:52.169Z,14.60
2023-04-16T12:15:20.320Z,16.10
2023-04-16T12:17:47.152Z,16.98
2023-04-16T12:20:15.178Z,19.17
2023-04-16T12:22:45.379Z,15.77
2023-04-16T12:25:14.286Z,15.63
2023-04-16T12:30:09.378Z,15.88
2023-04-16T12:32:37.550Z,18.87
2023-04-16T12:35:04.921Z,22.88
2023-04-16T12:37:31.909Z,17.00
2023-04-16T12:39:58.655Z,15.30
2023-04-16T12:42:25.446Z,17.80
2023-04-16T12:44:52.357Z,20.52
2023-04-16T12:47:19.652Z,19.85
2023-04-16T12:49:47.737Z,16.15
2023-04-16T12:52:14.474Z,15.93
2023-04-16T12:54:41.493Z,16.58
2023-04-16T12:57:08.280Z,15.70
2023-04-16T12:59:35.005Z,17.60
2023-04-16T13:02:01.863Z,19.02
2023-04-16T13:04:28.848Z,15.60
2023-04-16T13:06:57.046Z,13.85
2023-04-16T13:09:23.790Z,16.33
2023-04-16T13:11:50.520Z,17.05
2023-04-16T13:14:17.312Z,14.98
2023-04-16T13:16:44.433Z,14.27
2023-04-16T13:19:11.477Z,16.40
2023-04-16T13:21:38.578Z,17.27
2023-04-16T13:24:07.151Z,14.80
2023-04-16T13:26:33.962Z,15.38
2023-04-16T13:29:00.678Z,19.60
2023-04-16T13:31:27.504Z,17.70
2023-04-16T13:33:54.363Z,17.02
2023-04-16T13:36:21.095Z,14.75
2023-04-16T13:38:47.798Z,16.58
2023-04-16T13:41:15.855Z,21.80
2023-04-16T13:43:42.598Z,22.10
2023-04-16T13:48:17.164Z,18.23
2023-04-16T13:50:46.461Z,20.90
2023-04-16T13:53:13.178Z,20.38
2023-04-16T13:55:39.938Z,18.75
2023-04-16T13:58:06.818Z,15.07
2023-04-16T14:00:33.588Z,18.13
2023-04-16T14:03:00.565Z,22.38
2023-04-16T14:05:28.825Z,18.35
2023-04-16T14:07:55.586Z,20.07
2023-04-16T14:10:22.317Z,21.83
2023-04-16T14:12:49.188Z,20.35
2023-04-16T14:15:16.064Z,18.50
2023-04-16T14:17:43.159Z,21.77
2023-04-16T14:20:11.498Z,23.45
2023-04-16T14:22:39.969Z,20.90
2023-04-16T14:25:07.232Z,22.95
2023-04-16T14:27:36.691Z,17.55
2023-04-16T14:30:03.957Z,19.83
2023-04-16T14:32:30.774Z,20.38
2023-04-16T14:34:57.493Z,21.73
2023-04-16T14:37:24.464Z,22.30
2023-04-16T14:39:52.613Z,21.13
2023-04-16T14:42:19.442Z,21.15
2023-04-16T14:44:46.287Z,23.48
2023-04-16T14:47:13.033Z,18.10
2023-04-16T14:49:39.790Z,20.02
2023-04-16T14:52:06.593Z,22.17
2023-04-16T14:54:33.818Z,23.83
2023-04-16T14:57:07.998Z,22.70
2023-04-16T14:59:37.588Z,22.52
2023-04-16T15:02:04.904Z,19.80
2023-04-16T15:04:32.342Z,21.15
2023-04-16T15:06:59.716Z,21.52
2023-04-16T15:09:26.643Z,21.30
2023-04-16T15:11:53.523Z,21.13
2023-04-16T15:14:21.718Z,19.73
2023-04-16T15:16:48.693Z,19.60
2023-04-16T15:19:15.549Z,23.73
2023-04-16T15:21:42.302Z,21.02
2023-04-16T15:24:09.230Z,18.35
2023-04-16T15:26:36.092Z,20.67
2023-04-16T15:29:02.934Z,20.77
2023-04-16T15:31:31.116Z,19.70
2023-04-16T15:33:58.002Z,17.52
2023-04-16T15:36:24.760Z,18.42
2023-04-16T15:38:51.678Z,20.33
2023-04-16T15:41:18.762Z,20.77
2023-04-16T15:43:47.048Z,18.73
2023-04-16T15:46:13.867Z,21.98
2023-04-16T15:48:42.055Z,20.85
2023-04-16T15:51:09.034Z,17.75
2023-04-16T15:53:37.585Z,17.77
2023-04-16T15:56:04.658Z,23.05
2023-04-16T15:58:31.613Z,18.42
2023-04-16T16:00:58.474Z,19.65
2023-04-16T16:03:28.033Z,16.45
2023-04-16T16:05:59.439Z,16.13
2023-04-16T16:08:26.437Z,16.80
2023-04-16T16:10:53.174Z,17.20
2023-04-16T16:13:19.946Z,16.95
2023-04-16T16:15:46.798Z,17.48
2023-04-16T16:18:13.546Z,15.98
2023-04-16T16:20:40.268Z,21.48
2023-04-16T16:23:08.378Z,22.15
2023-04-16T16:25:35.238Z,19.73
2023-04-16T16:28:03.548Z,17.35
2023-04-16T16:30:32.087Z,19.05
2023-04-16T16:32:58.987Z,17.65
2023-04-16T16:35:25.784Z,19.25
2023-04-16T16:37:52.571Z,20.27
2023-04-16T16:40:21.451Z,20.60
2023-04-16T16:42:48.249Z,19.52
2023-04-16T16:45:16.878Z,19.20
2023-04-16T16:47:43.790Z,19.42
2023-04-16T16:50:11.322Z,15.43
2023-04-16T16:52:38.218Z,16.23
2023-04-16T16:55:06.014Z,14.55
2023-04-16T16:57:35.840Z,18.65
2023-04-16T17:00:02.738Z,17.90
2023-04-16T17:02:29.553Z,18.27
2023-04-16T17:04:56.339Z,14.98
2023-04-16T17:07:23.090Z,16.95
2023-04-16T17:09:49.861Z,16.20
2023-04-16T17:12:16.719Z,15.10
2023-04-16T17:14:49.133Z,17.17
2023-04-16T17:17:15.985Z,19.52
2023-04-16T17:19:42.750Z,17.70
2023-04-16T17:22:11.907Z,21.25
2023-04-16T17:24:41.827Z,20.00
2023-04-16T17:27:08.833Z,20.48
2023-04-16T17:29:35.616Z,20.10
2023-04-16T17:32:06.790Z,23.92
2023-04-16T17:34:34.322Z,19.40
2023-04-16T17:37:01.130Z,20.75
2023-04-16T17:39:27.856Z,20.33
2023-04-16T17:41:55.800Z,19.85
2023-04-16T17:44:22.588Z,19.08
2023-04-16T17:46:49.366Z,23.45
2023-04-16T17:49:17.910Z,27.83
2023-04-16T17:51:44.862Z,31.05
2023-04-16T17:54:13.195Z,28.10
2023-04-16T17:56:40.066Z,25.30
2023-04-16T17:59:07.225Z,23.35
2023-04-16T18:01:34.135Z,26.17
2023-04-16T18:04:01.131Z,28.05
2023-04-16T18:06:29.510Z,26.15
2023-04-16T18:08:56.256Z,22.80
2023-04-16T18:11:23.073Z,23.27
2023-04-16T18:13:50.018Z,27.20
2023-04-16T18:16:17.287Z,22.75
2023-04-16T18:18:44.653Z,24.60
2023-04-16T18:21:11.862Z,23.40
2023-04-16T18:23:40.077Z,22.65
2023-04-16T18:26:08.429Z,19.63
2023-04-16T18:28:36.193Z,25.73
2023-04-16T18:31:02.914Z,19.60
2023-04-16T18:33:52.350Z,25.98
2023-04-16T18:36:17.128Z,24.35
2023-04-16T18:38:59.505Z,23.73
2023-04-16T18:41:28.495Z,28.95
2023-04-16T18:43:55.261Z,30.42
2023-04-16T18:46:22.088Z,24.15
2023-04-16T18:48:51.651Z,26.02
2023-04-16T18:51:18.494Z,26.50
2023-04-16T18:53:48.250Z,32.90
2023-04-16T18:56:14.959Z,30.45
2023-04-16T18:58:41.857Z,27.08
2023-04-16T19:01:08.612Z,32.50
2023-04-16T19:03:35.531Z,24.65
2023-04-16T19:06:02.394Z,29.42
2023-04-16T19:08:29.573Z,29.88
2023-04-16T19:10:59.028Z,26.92
2023-04-16T19:13:25.777Z,22.73
2023-04-16T19:15:57.635Z,26.88
2023-04-16T19:18:24.543Z,24.05
2023-04-16T19:20:52.381Z,25.15
2023-04-16T19:23:19.110Z,25.15
2023-04-16T19:25:48.184Z,26.15
2023-04-16T19:28:16.391Z,20.65
2023-04-16T19:30:43.624Z,27.30
2023-04-16T19:33:10.408Z,25.13
2023-04-16T19:35:37.223Z,28.60
2023-04-16T19:38:04.036Z,34.03
2023-04-16T19:40:30.925Z,24.35
2023-04-16T19:42:57.814Z,26.80
2023-04-16T19:45:26.028Z,20.50
2023-04-16T19:47:52.897Z,28.55
2023-04-16T19:50:19.673Z,31.10
2023-04-16T19:52:47.734Z,27.85
2023-04-16T19:55:14.499Z,26.83
2023-04-16T19:57:41.250Z,27.98
2023-04-16T20:00:08.902Z,31.13
2023-04-16T20:02:37.326Z,27.00
2023-04-16T20:05:04.625Z,26.13
2023-04-16T20:07:31.360Z,28.63
2023-04-16T20:09:58.096Z,35.95
2023-04-16T20:12:24.835Z,35.47
2023-04-16T20:14:51.931Z,28.98
2023-04-16T20:17:20.080Z,38.13
2023-04-16T20:19:51.132Z,28.33
2023-04-16T20:22:18.201Z,38.80
2023-04-16T20:24:46.292Z,36.88
2023-04-16T20:27:14.281Z,36.80
2023-04-16T20:29:41.259Z,35.67
2023-04-16T20:32:08.042Z,34.60
2023-04-16T20:34:34.779Z,34.67
2023-04-16T20:37:02.860Z,32.35
2023-04-16T20:39:29.620Z,31.50
2023-04-16T20:41:56.329Z,28.10
2023-04-16T20:44:23.742Z,30.25
2023-04-16T20:46:50.614Z,31.20
2023-04-16T20:49:17.595Z,30.40
2023-04-16T20:51:44.395Z,30.75
2023-04-16T20:54:12.467Z,33.25
2023-04-16T20:56:39.224Z,28.93
2023-04-16T20:59:05.968Z,25.13
2023-04-16T21:01:32.820Z,23.90
2023-04-16T21:03:59.724Z,31.88
2023-04-16T21:06:26.655Z,32.50
2023-04-16T21:08:53.451Z,31.63
2023-04-16T21:11:21.477Z,32.05
2023-04-16T21:13:48.168Z,32.53
2023-04-16T21:16:14.948Z,29.52
2023-04-16T21:18:41.754Z,34.53
2023-04-16T21:21:08.463Z,35.42
2023-04-16T21:23:35.216Z,33.67
2023-04-16T21:26:01.974Z,33.72
2023-04-16T21:28:30.091Z,31.50
2023-04-16T21:30:56.857Z,39.07
2023-04-16T21:33:23.599Z,36.17
2023-04-16T21:35:53.338Z,32.85
2023-04-16T21:38:20.242Z,29.75
2023-04-16T21:40:47.102Z,34.13
2023-04-16T21:43:13.831Z,40.60
2023-04-16T21:45:41.876Z,33.72
2023-04-16T21:48:08.618Z,28.73
2023-04-16T21:50:35.388Z,30.23
2023-04-16T21:53:02.416Z,32.28
2023-04-16T21:55:31.339Z,33.53
2023-04-16T21:57:58.049Z,36.88
2023-04-16T22:00:25.033Z,32.20
2023-04-16T22:02:53.326Z,40.40
2023-04-16T22:05:20.201Z,39.45
2023-04-16T22:07:46.930Z,37.03
2023-04-16T22:10:15.180Z,32.90
2023-04-16T22:12:42.122Z,29.08
2023-04-16T22:15:09.513Z,35.72
2023-04-16T22:17:37.035Z,34.42
2023-04-16T22:20:06.308Z,33.50
2023-04-16T22:22:35.459Z,35.53
2023-04-16T22:25:02.419Z,28.83
2023-04-16T22:27:31.511Z,31.20
2023-04-16T22:29:58.266Z,32.50
2023-04-16T22:32:25.308Z,32.70
2023-04-16T22:34:52.202Z,35.15
2023-04-16T22:37:20.240Z,29.33
2023-04-16T22:39:49.027Z,35.77
2023-04-16T22:42:15.802Z,31.58
2023-04-16T22:44:42.806Z,37.95
2023-04-16T22:47:09.527Z,35.17
2023-04-16T22:49:36.508Z,34.53
2023-04-16T22:52:03.281Z,39.58
2023-04-16T22:54:32.864Z,39.78
2023-04-16T22:56:59.720Z,35.45
2023-04-16T22:59:26.476Z,35.72
2023-04-16T23:01:53.419Z,34.47
2023-04-16T23:04:20.286Z,36.35
2023-04-16T23:06:47.058Z,42.00
2023-04-16T23:09:14.077Z,39.20
2023-04-16T23:11:42.442Z,39.78
2023-04-16T23:14:09.195Z,37.97
2023-04-16T23:16:35.922Z,48.42
2023-04-16T23:19:02.685Z,37.83
2023-04-16T23:21:29.420Z,33.40
2023-04-16T23:23:56.185Z,35.83
2023-04-16T23:26:23.078Z,33.85
2023-04-16T23:28:51.165Z,39.78
2023-04-16T23:31:18.036Z,38.57
2023-04-16T23:33:44.757Z,34.75
2023-04-16T23:36:11.456Z,40.80
2023-04-16T23:38:38.264Z,41.20
2023-04-16T23:41:14.369Z,44.22
2023-04-16T23:43:41.118Z,36.10
2023-04-16T23:46:09.280Z,32.85
2023-04-16T23:48:36.001Z,34.80
2023-04-16T23:51:02.832Z,29.55
2023-04-16T23:53:32.637Z,40.47
2023-04-16T23:55:59.380Z,36.22
2023-04-16T23:58:26.065Z,41.97
